sensor_id;sensor_type;location;lat;lon;timestamp;temperature;humidity
48007;DHT22;33771;48.180;11.400;2023-01-24T00:02:17;0.50;99.90
48007;DHT22;33771;48.180;11.400;2023-01-24T00:04:43;0.50;99.90
48007;DHT22;33771;48.180;11.400;2023-01-24T00:07:08;0.50;99.90
48007;DHT22;33771;48.180;11.400;2023-01-24T00:09:34;0.50;99.90
48007;DHT22;33771;48.180;11.400;2023-01-24T00:11:59;0.50;99.90
48007;DHT22;33771;48.180;11.400;2023-01-24T00:14:25;0.50;99.90
48007;DHT22;33771;48.180;11.400;2023-01-24T00:16:50;0.40;99.90
48007;DHT22;33771;48.180;11.400;2023-01-24T00:19:18;0.40;99.90
48007;DHT22;33771;48.180;11.400;2023-01-24T00:21:44;0.50;99.90
48007;DHT22;33771;48.180;11.400;2023-01-24T00:24:09;0.50;99.90
48007;DHT22;33771;48.180;11.400;2023-01-24T00:26:35;0.50;99.90
48007;DHT22;33771;48.180;11.400;2023-01-24T00:29:00;0.50;99.90
48007;DHT22;33771;48.180;11.400;2023-01-24T00:31:26;0.50;99.90
48007;DHT22;33771;48.180;11.400;2023-01-24T00:33:51;0.50;99.90
48007;DHT22;33771;48.180;11.400;2023-01-24T00:36:17;0.50;99.90
48007;DHT22;33771;48.180;11.400;2023-01-24T00:38:42;0.50;99.90
48007;DHT22;33771;48.180;11.400;2023-01-24T00:41:08;0.50;99.90
48007;DHT22;33771;48.180;11.400;2023-01-24T00:43:34;0.50;99.90
48007;DHT22;33771;48.180;11.400;2023-01-24T00:46:00;0.50;99.90
48007;DHT22;33771;48.180;11.400;2023-01-24T00:48:26;0.50;99.90
48007;DHT22;33771;48.180;11.400;2023-01-24T00:50:51;0.50;99.90
48007;DHT22;33771;48.180;11.400;2023-01-24T00:53:17;0.50;99.90
48007;DHT22;33771;48.180;11.400;2023-01-24T00:55:46;0.50;99.90
48007;DHT22;33771;48.180;11.400;2023-01-24T00:58:12;0.50;99.90
48007;DHT22;33771;48.180;11.400;2023-01-24T01:00:38;0.50;99.90
48007;DHT22;33771;48.180;11.400;2023-01-24T01:03:05;0.50;99.90
48007;DHT22;33771;48.180;11.400;2023-01-24T01:05:31;0.50;99.90
48007;DHT22;33771;48.180;11.400;2023-01-24T01:07:56;0.60;99.90
48007;DHT22;33771;48.180;11.400;2023-01-24T01:10:22;0.50;99.90
48007;DHT22;33771;48.180;11.400;2023-01-24T01:12:47;0.50;99.90
48007;DHT22;33771;48.180;11.400;2023-01-24T01:15:13;0.50;99.90
48007;DHT22;33771;48.180;11.400;2023-01-24T01:17:38;0.50;99.90
48007;DHT22;33771;48.180;11.400;2023-01-24T01:20:05;0.50;99.90
48007;DHT22;33771;48.180;11.400;2023-01-24T01:22:30;0.50;99.90
48007;DHT22;33771;48.180;11.400;2023-01-24T01:24:56;0.50;99.90
48007;DHT22;33771;48.180;11.400;2023-01-24T01:27:21;0.50;99.90
48007;DHT22;33771;48.180;11.400;2023-01-24T01:29:47;0.50;99.90
48007;DHT22;33771;48.180;11.400;2023-01-24T01:32:13;0.50;99.90
48007;DHT22;33771;48.180;11.400;2023-01-24T01:34:38;0.50;99.90
48007;DHT22;33771;48.180;11.400;2023-01-24T01:37:04;0.50;99.90
48007;DHT22;33771;48.180;11.400;2023-01-24T01:39:29;0.50;99.90
48007;DHT22;33771;48.180;11.400;2023-01-24T01:41:55;0.60;99.90
48007;DHT22;33771;48.180;11.400;2023-01-24T01:44:27;0.60;99.90
48007;DHT22;33771;48.180;11.400;2023-01-24T01:47:31;0.50;99.90
48007;DHT22;33771;48.180;11.400;2023-01-24T01:50:11;0.50;99.90
48007;DHT22;33771;48.180;11.400;2023-01-24T01:52:41;0.50;99.90
48007;DHT22;33771;48.180;11.400;2023-01-24T01:55:14;0.50;99.90
48007;DHT22;33771;48.180;11.400;2023-01-24T01:57:41;0.50;99.90
48007;DHT22;33771;48.180;11.400;2023-01-24T02:00:11;0.50;99.90
48007;DHT22;33771;48.180;11.400;2023-01-24T02:02:40;0.50;99.90
48007;DHT22;33771;48.180;11.400;2023-01-24T02:05:08;0.50;99.90
48007;DHT22;33771;48.180;11.400;2023-01-24T02:07:42;0.50;99.90
48007;DHT22;33771;48.180;11.400;2023-01-24T02:10:10;0.50;99.90
48007;DHT22;33771;48.180;11.400;2023-01-24T02:12:47;0.50;99.90
48007;DHT22;33771;48.180;11.400;2023-01-24T02:15:16;0.50;99.90
48007;DHT22;33771;48.180;11.400;2023-01-24T02:18:00;0.50;99.90
48007;DHT22;33771;48.180;11.400;2023-01-24T02:26:13;0.50;99.90
48007;DHT22;33771;48.180;11.400;2023-01-24T02:28:43;0.50;99.90
48007;DHT22;33771;48.180;11.400;2023-01-24T02:31:12;0.60;99.90
48007;DHT22;33771;48.180;11.400;2023-01-24T02:33:38;0.60;99.90
48007;DHT22;33771;48.180;11.400;2023-01-24T02:36:28;0.60;99.90
48007;DHT22;33771;48.180;11.400;2023-01-24T02:39:10;0.60;99.90
48007;DHT22;33771;48.180;11.400;2023-01-24T02:41:47;0.50;99.90
48007;DHT22;33771;48.180;11.400;2023-01-24T02:44:18;0.50;99.90
48007;DHT22;33771;48.180;11.400;2023-01-24T02:46:45;0.60;99.90
48007;DHT22;33771;48.180;11.400;2023-01-24T02:49:11;0.60;99.90
48007;DHT22;33771;48.180;11.400;2023-01-24T02:51:37;0.50;99.90
48007;DHT22;33771;48.180;11.400;2023-01-24T02:54:21;0.50;99.90
48007;DHT22;33771;48.180;11.400;2023-01-24T02:56:47;0.50;99.90
48007;DHT22;33771;48.180;11.400;2023-01-24T02:59:31;0.60;99.90
48007;DHT22;33771;48.180;11.400;2023-01-24T03:01:57;0.60;99.90
48007;DHT22;33771;48.180;11.400;2023-01-24T03:04:22;0.60;99.90
48007;DHT22;33771;48.180;11.400;2023-01-24T03:06:48;0.50;99.90
48007;DHT22;33771;48.180;11.400;2023-01-24T03:09:16;0.50;99.90
48007;DHT22;33771;48.180;11.400;2023-01-24T03:11:46;0.60;99.90
48007;DHT22;33771;48.180;11.400;2023-01-24T03:14:13;0.60;99.90
48007;DHT22;33771;48.180;11.400;2023-01-24T03:16:57;0.60;99.90
48007;DHT22;33771;48.180;11.400;2023-01-24T03:19:41;0.50;99.90
48007;DHT22;33771;48.180;11.400;2023-01-24T03:22:25;0.60;99.90
48007;DHT22;33771;48.180;11.400;2023-01-24T03:25:09;0.60;99.90
48007;DHT22;33771;48.180;11.400;2023-01-24T03:27:53;0.60;99.90
48007;DHT22;33771;48.180;11.400;2023-01-24T03:30:37;0.60;99.90
48007;DHT22;33771;48.180;11.400;2023-01-24T03:33:21;0.60;99.90
48007;DHT22;33771;48.180;11.400;2023-01-24T03:36:06;0.60;99.90
48007;DHT22;33771;48.180;11.400;2023-01-24T03:38:31;0.60;99.90
48007;DHT22;33771;48.180;11.400;2023-01-24T03:41:16;0.60;99.90
48007;DHT22;33771;48.180;11.400;2023-01-24T03:43:41;0.60;99.90
48007;DHT22;33771;48.180;11.400;2023-01-24T03:46:09;0.60;99.90
48007;DHT22;33771;48.180;11.400;2023-01-24T03:48:34;0.60;99.90
48007;DHT22;33771;48.180;11.400;2023-01-24T03:51:02;0.50;99.90
48007;DHT22;33771;48.180;11.400;2023-01-24T03:53:47;0.50;99.90
48007;DHT22;33771;48.180;11.400;2023-01-24T03:56:12;0.60;99.90
48007;DHT22;33771;48.180;11.400;2023-01-24T03:58:38;0.60;99.90
48007;DHT22;33771;48.180;11.400;2023-01-24T04:01:04;0.60;99.90
48007;DHT22;33771;48.180;11.400;2023-01-24T04:03:29;0.60;99.90
48007;DHT22;33771;48.180;11.400;2023-01-24T04:05:58;0.50;99.90
48007;DHT22;33771;48.180;11.400;2023-01-24T04:08:23;0.50;99.90
48007;DHT22;33771;48.180;11.400;2023-01-24T04:10:49;0.50;99.90
48007;DHT22;33771;48.180;11.400;2023-01-24T04:13:14;0.60;99.90
48007;DHT22;33771;48.180;11.400;2023-01-24T04:15:40;0.50;99.90
48007;DHT22;33771;48.180;11.400;2023-01-24T04:18:06;0.60;99.90
48007;DHT22;33771;48.180;11.400;2023-01-24T04:20:34;0.60;99.90
48007;DHT22;33771;48.180;11.400;2023-01-24T04:23:05;0.60;99.90
48007;DHT22;33771;48.180;11.400;2023-01-24T04:25:31;0.60;99.90
48007;DHT22;33771;48.180;11.400;2023-01-24T04:27:57;0.60;99.90
48007;DHT22;33771;48.180;11.400;2023-01-24T04:30:23;0.60;99.90
48007;DHT22;33771;48.180;11.400;2023-01-24T04:32:48;0.60;99.90
48007;DHT22;33771;48.180;11.400;2023-01-24T04:35:25;0.50;99.90
48007;DHT22;33771;48.180;11.400;2023-01-24T04:37:51;0.50;99.90
48007;DHT22;33771;48.180;11.400;2023-01-24T04:40:17;0.50;99.90
48007;DHT22;33771;48.180;11.400;2023-01-24T04:42:42;0.50;99.90
48007;DHT22;33771;48.180;11.400;2023-01-24T04:45:09;0.60;99.90
48007;DHT22;33771;48.180;11.400;2023-01-24T04:47:35;0.60;99.90
48007;DHT22;33771;48.180;11.400;2023-01-24T04:50:00;0.50;99.90
48007;DHT22;33771;48.180;11.400;2023-01-24T04:52:26;0.60;99.90
48007;DHT22;33771;48.180;11.400;2023-01-24T04:54:52;0.60;99.90
48007;DHT22;33771;48.180;11.400;2023-01-24T04:57:18;0.60;99.90
48007;DHT22;33771;48.180;11.400;2023-01-24T04:59:44;0.60;99.90
48007;DHT22;33771;48.180;11.400;2023-01-24T05:02:09;0.60;99.90
48007;DHT22;33771;48.180;11.400;2023-01-24T05:04:35;0.60;99.90
48007;DHT22;33771;48.180;11.400;2023-01-24T05:07:01;0.60;99.90
48007;DHT22;33771;48.180;11.400;2023-01-24T05:09:27;0.60;99.90
48007;DHT22;33771;48.180;11.400;2023-01-24T05:11:52;0.60;99.90
48007;DHT22;33771;48.180;11.400;2023-01-24T05:14:18;0.60;99.90
48007;DHT22;33771;48.180;11.400;2023-01-24T05:16:43;0.60;99.90
48007;DHT22;33771;48.180;11.400;2023-01-24T05:19:09;0.60;99.90
48007;DHT22;33771;48.180;11.400;2023-01-24T05:21:37;0.60;99.90
48007;DHT22;33771;48.180;11.400;2023-01-24T05:24:03;0.60;99.90
48007;DHT22;33771;48.180;11.400;2023-01-24T05:26:29;0.60;99.90
48007;DHT22;33771;48.180;11.400;2023-01-24T05:28:54;0.60;99.90
48007;DHT22;33771;48.180;11.400;2023-01-24T05:31:21;0.60;99.90
48007;DHT22;33771;48.180;11.400;2023-01-24T05:33:47;0.60;99.90
48007;DHT22;33771;48.180;11.400;2023-01-24T05:36:15;0.60;99.90
48007;DHT22;33771;48.180;11.400;2023-01-24T05:38:42;0.60;99.90
48007;DHT22;33771;48.180;11.400;2023-01-24T05:41:10;0.70;99.90
48007;DHT22;33771;48.180;11.400;2023-01-24T05:43:36;0.70;99.90
48007;DHT22;33771;48.180;11.400;2023-01-24T05:46:06;0.60;99.90
48007;DHT22;33771;48.180;11.400;2023-01-24T05:48:32;0.60;99.90
48007;DHT22;33771;48.180;11.400;2023-01-24T05:51:00;0.60;99.90
48007;DHT22;33771;48.180;11.400;2023-01-24T05:53:27;0.60;99.90
48007;DHT22;33771;48.180;11.400;2023-01-24T05:56:00;0.60;99.90
48007;DHT22;33771;48.180;11.400;2023-01-24T05:58:28;0.60;99.90
48007;DHT22;33771;48.180;11.400;2023-01-24T06:00:54;0.50;99.90
48007;DHT22;33771;48.180;11.400;2023-01-24T06:03:20;0.60;99.90
48007;DHT22;33771;48.180;11.400;2023-01-24T06:05:47;0.60;99.90
48007;DHT22;33771;48.180;11.400;2023-01-24T06:08:13;0.60;99.90
48007;DHT22;33771;48.180;11.400;2023-01-24T06:10:39;0.60;99.90
48007;DHT22;33771;48.180;11.400;2023-01-24T06:13:04;0.60;99.90
48007;DHT22;33771;48.180;11.400;2023-01-24T06:15:30;0.50;99.90
48007;DHT22;33771;48.180;11.400;2023-01-24T06:17:56;0.60;99.90
48007;DHT22;33771;48.180;11.400;2023-01-24T06:20:21;0.50;99.90
48007;DHT22;33771;48.180;11.400;2023-01-24T06:23:04;0.60;99.90
48007;DHT22;33771;48.180;11.400;2023-01-24T06:25:30;0.60;99.90
48007;DHT22;33771;48.180;11.400;2023-01-24T06:27:56;0.60;99.90
48007;DHT22;33771;48.180;11.400;2023-01-24T06:30:22;0.60;99.90
48007;DHT22;33771;48.180;11.400;2023-01-24T06:35:47;0.60;99.90
48007;DHT22;33771;48.180;11.400;2023-01-24T06:38:22;0.60;99.90
48007;DHT22;33771;48.180;11.400;2023-01-24T06:40:54;0.60;99.90
48007;DHT22;33771;48.180;11.400;2023-01-24T06:43:21;0.60;99.90
48007;DHT22;33771;48.180;11.400;2023-01-24T06:45:47;0.60;99.90
48007;DHT22;33771;48.180;11.400;2023-01-24T06:48:12;0.60;99.90
48007;DHT22;33771;48.180;11.400;2023-01-24T06:50:38;0.60;99.90
48007;DHT22;33771;48.180;11.400;2023-01-24T06:53:03;0.60;99.90
48007;DHT22;33771;48.180;11.400;2023-01-24T06:55:30;0.60;99.90
48007;DHT22;33771;48.180;11.400;2023-01-24T06:57:57;0.60;99.90
48007;DHT22;33771;48.180;11.400;2023-01-24T07:00:23;0.60;99.90
48007;DHT22;33771;48.180;11.400;2023-01-24T07:03:03;0.60;99.90
48007;DHT22;33771;48.180;11.400;2023-01-24T07:05:32;0.60;99.90
48007;DHT22;33771;48.180;11.400;2023-01-24T07:07:58;0.60;99.90
48007;DHT22;33771;48.180;11.400;2023-01-24T07:10:24;0.60;99.90
48007;DHT22;33771;48.180;11.400;2023-01-24T07:12:52;0.70;99.90
48007;DHT22;33771;48.180;11.400;2023-01-24T07:15:20;0.60;99.90
48007;DHT22;33771;48.180;11.400;2023-01-24T07:17:46;0.60;99.90
48007;DHT22;33771;48.180;11.400;2023-01-24T07:20:12;0.60;99.90
48007;DHT22;33771;48.180;11.400;2023-01-24T07:22:40;0.60;99.90
48007;DHT22;33771;48.180;11.400;2023-01-24T07:25:15;0.60;99.90
48007;DHT22;33771;48.180;11.400;2023-01-24T07:27:42;0.60;99.90
48007;DHT22;33771;48.180;11.400;2023-01-24T07:30:10;0.60;99.90
48007;DHT22;33771;48.180;11.400;2023-01-24T07:32:36;0.60;99.90
48007;DHT22;33771;48.180;11.400;2023-01-24T07:35:01;0.60;99.90
48007;DHT22;33771;48.180;11.400;2023-01-24T07:37:27;0.70;99.90
48007;DHT22;33771;48.180;11.400;2023-01-24T07:39:52;0.70;99.90
48007;DHT22;33771;48.180;11.400;2023-01-24T07:42:18;0.70;99.90
48007;DHT22;33771;48.180;11.400;2023-01-24T07:44:43;0.70;99.90
48007;DHT22;33771;48.180;11.400;2023-01-24T07:47:09;0.70;99.90
48007;DHT22;33771;48.180;11.400;2023-01-24T07:49:35;0.70;99.90
48007;DHT22;33771;48.180;11.400;2023-01-24T07:52:00;0.70;99.90
48007;DHT22;33771;48.180;11.400;2023-01-24T07:54:26;0.70;99.90
48007;DHT22;33771;48.180;11.400;2023-01-24T07:56:51;0.70;99.90
48007;DHT22;33771;48.180;11.400;2023-01-24T07:59:17;0.70;99.90
48007;DHT22;33771;48.180;11.400;2023-01-24T08:01:42;0.70;99.90
48007;DHT22;33771;48.180;11.400;2023-01-24T08:04:09;0.70;99.90
48007;DHT22;33771;48.180;11.400;2023-01-24T08:06:34;0.80;99.90
48007;DHT22;33771;48.180;11.400;2023-01-24T08:09:00;0.80;99.90
48007;DHT22;33771;48.180;11.400;2023-01-24T08:11:26;0.80;99.90
48007;DHT22;33771;48.180;11.400;2023-01-24T08:13:52;0.80;99.90
48007;DHT22;33771;48.180;11.400;2023-01-24T08:16:18;0.80;99.90
48007;DHT22;33771;48.180;11.400;2023-01-24T08:18:43;0.80;99.90
48007;DHT22;33771;48.180;11.400;2023-01-24T08:21:09;0.80;99.90
48007;DHT22;33771;48.180;11.400;2023-01-24T08:23:35;0.90;99.90
48007;DHT22;33771;48.180;11.400;2023-01-24T08:26:01;0.90;99.90
48007;DHT22;33771;48.180;11.400;2023-01-24T08:28:27;0.90;99.90
48007;DHT22;33771;48.180;11.400;2023-01-24T08:30:57;0.80;99.90
48007;DHT22;33771;48.180;11.400;2023-01-24T08:33:22;0.80;99.90
48007;DHT22;33771;48.180;11.400;2023-01-24T08:35:48;0.90;99.90
48007;DHT22;33771;48.180;11.400;2023-01-24T08:38:15;0.80;99.90
48007;DHT22;33771;48.180;11.400;2023-01-24T08:40:41;0.90;99.90
48007;DHT22;33771;48.180;11.400;2023-01-24T08:43:07;0.90;99.90
48007;DHT22;33771;48.180;11.400;2023-01-24T08:45:33;0.90;99.90
48007;DHT22;33771;48.180;11.400;2023-01-24T08:47:59;0.90;99.90
48007;DHT22;33771;48.180;11.400;2023-01-24T08:50:25;0.90;99.90
48007;DHT22;33771;48.180;11.400;2023-01-24T08:52:55;0.90;99.90
48007;DHT22;33771;48.180;11.400;2023-01-24T08:55:23;1.00;99.90
48007;DHT22;33771;48.180;11.400;2023-01-24T08:57:49;1.00;99.90
48007;DHT22;33771;48.180;11.400;2023-01-24T09:00:15;1.00;99.90
48007;DHT22;33771;48.180;11.400;2023-01-24T09:02:41;1.00;99.90
48007;DHT22;33771;48.180;11.400;2023-01-24T09:05:07;1.00;99.90
48007;DHT22;33771;48.180;11.400;2023-01-24T09:07:34;1.00;99.90
48007;DHT22;33771;48.180;11.400;2023-01-24T09:10:06;1.00;99.90
48007;DHT22;33771;48.180;11.400;2023-01-24T09:12:31;1.00;99.90
48007;DHT22;33771;48.180;11.400;2023-01-24T09:14:57;1.00;99.90
48007;DHT22;33771;48.180;11.400;2023-01-24T09:17:23;1.00;99.90
48007;DHT22;33771;48.180;11.400;2023-01-24T09:19:48;1.10;99.90
48007;DHT22;33771;48.180;11.400;2023-01-24T09:22:14;1.10;99.90
48007;DHT22;33771;48.180;11.400;2023-01-24T09:24:40;1.10;99.90
48007;DHT22;33771;48.180;11.400;2023-01-24T09:27:05;1.00;99.90
48007;DHT22;33771;48.180;11.400;2023-01-24T09:29:31;1.10;99.90
48007;DHT22;33771;48.180;11.400;2023-01-24T09:31:57;1.00;99.90
48007;DHT22;33771;48.180;11.400;2023-01-24T09:34:22;1.10;99.90
48007;DHT22;33771;48.180;11.400;2023-01-24T09:36:48;1.10;99.90
48007;DHT22;33771;48.180;11.400;2023-01-24T09:39:15;1.10;99.90
48007;DHT22;33771;48.180;11.400;2023-01-24T09:42:10;1.10;99.90
48007;DHT22;33771;48.180;11.400;2023-01-24T09:50:16;1.10;99.90
48007;DHT22;33771;48.180;11.400;2023-01-24T09:52:44;1.10;99.90
48007;DHT22;33771;48.180;11.400;2023-01-24T10:00:33;1.10;99.90
48007;DHT22;33771;48.180;11.400;2023-01-24T10:03:00;1.10;99.90
48007;DHT22;33771;48.180;11.400;2023-01-24T10:05:37;1.10;99.90
48007;DHT22;33771;48.180;11.400;2023-01-24T10:08:34;1.10;99.90
48007;DHT22;33771;48.180;11.400;2023-01-24T10:11:25;1.10;99.90
48007;DHT22;33771;48.180;11.400;2023-01-24T10:19:22;1.10;99.90
48007;DHT22;33771;48.180;11.400;2023-01-24T10:22:24;1.20;99.90
48007;DHT22;33771;48.180;11.400;2023-01-24T10:24:52;1.20;99.90
48007;DHT22;33771;48.180;11.400;2023-01-24T10:27:32;1.20;99.90
48007;DHT22;33771;48.180;11.400;2023-01-24T10:30:13;1.20;99.90
48007;DHT22;33771;48.180;11.400;2023-01-24T10:32:41;1.30;99.90
48007;DHT22;33771;48.180;11.400;2023-01-24T10:35:20;1.30;99.90
48007;DHT22;33771;48.180;11.400;2023-01-24T10:37:50;1.30;99.90
48007;DHT22;33771;48.180;11.400;2023-01-24T10:40:22;1.30;99.90
48007;DHT22;33771;48.180;11.400;2023-01-24T10:42:50;1.30;99.90
48007;DHT22;33771;48.180;11.400;2023-01-24T10:45:44;1.30;99.90
48007;DHT22;33771;48.180;11.400;2023-01-24T10:48:30;1.30;99.90
48007;DHT22;33771;48.180;11.400;2023-01-24T10:51:16;1.30;99.90
48007;DHT22;33771;48.180;11.400;2023-01-24T10:53:43;1.30;99.90
48007;DHT22;33771;48.180;11.400;2023-01-24T10:56:09;1.30;99.90
48007;DHT22;33771;48.180;11.400;2023-01-24T10:59:10;1.30;99.90
48007;DHT22;33771;48.180;11.400;2023-01-24T11:01:35;1.40;99.90
48007;DHT22;33771;48.180;11.400;2023-01-24T11:04:19;1.40;99.90
48007;DHT22;33771;48.180;11.400;2023-01-24T11:06:49;1.30;99.90
48007;DHT22;33771;48.180;11.400;2023-01-24T11:09:20;1.40;99.90
48007;DHT22;33771;48.180;11.400;2023-01-24T11:11:49;1.40;99.90
48007;DHT22;33771;48.180;11.400;2023-01-24T11:14:19;1.40;99.90
48007;DHT22;33771;48.180;11.400;2023-01-24T11:16:47;1.40;99.90
48007;DHT22;33771;48.180;11.400;2023-01-24T11:19:36;1.40;99.90
48007;DHT22;33771;48.180;11.400;2023-01-24T11:22:21;1.40;99.90
48007;DHT22;33771;48.180;11.400;2023-01-24T11:24:47;1.40;99.90
48007;DHT22;33771;48.180;11.400;2023-01-24T11:27:15;1.50;99.90
48007;DHT22;33771;48.180;11.400;2023-01-24T11:29:41;1.40;99.90
48007;DHT22;33771;48.180;11.400;2023-01-24T11:37:45;1.40;99.90
48007;DHT22;33771;48.180;11.400;2023-01-24T11:40:34;1.40;99.90
48007;DHT22;33771;48.180;11.400;2023-01-24T11:51:36;1.50;99.90
48007;DHT22;33771;48.180;11.400;2023-01-24T11:56:58;1.50;99.90
48007;DHT22;33771;48.180;11.400;2023-01-24T12:18:47;1.50;99.90
48007;DHT22;33771;48.180;11.400;2023-01-24T12:21:17;1.50;99.90
48007;DHT22;33771;48.180;11.400;2023-01-24T12:24:03;1.50;99.90
48007;DHT22;33771;48.180;11.400;2023-01-24T12:26:35;1.50;99.90
48007;DHT22;33771;48.180;11.400;2023-01-24T12:29:23;1.50;99.90
48007;DHT22;33771;48.180;11.400;2023-01-24T12:32:36;1.50;99.90
48007;DHT22;33771;48.180;11.400;2023-01-24T12:34:49;1.50;99.90
48007;DHT22;33771;48.180;11.400;2023-01-24T12:42:45;1.60;99.90
48007;DHT22;33771;48.180;11.400;2023-01-24T12:45:38;1.60;99.90
48007;DHT22;33771;48.180;11.400;2023-01-24T12:48:31;1.50;99.90
48007;DHT22;33771;48.180;11.400;2023-01-24T12:51:19;1.60;99.90
48007;DHT22;33771;48.180;11.400;2023-01-24T12:54:18;1.60;99.90
48007;DHT22;33771;48.180;11.400;2023-01-24T12:59:30;1.60;99.90
48007;DHT22;33771;48.180;11.400;2023-01-24T13:07:54;1.70;99.90
48007;DHT22;33771;48.180;11.400;2023-01-24T13:22:21;1.70;99.90
48007;DHT22;33771;48.180;11.400;2023-01-24T13:25:21;1.70;99.90
48007;DHT22;33771;48.180;11.400;2023-01-24T13:28:03;1.70;99.90
48007;DHT22;33771;48.180;11.400;2023-01-24T13:32:59;1.70;99.90
48007;DHT22;33771;48.180;11.400;2023-01-24T13:35:28;1.70;99.90
48007;DHT22;33771;48.180;11.400;2023-01-24T13:40:26;1.70;99.90
48007;DHT22;33771;48.180;11.400;2023-01-24T13:42:56;1.70;99.90
48007;DHT22;33771;48.180;11.400;2023-01-24T13:47:53;1.80;99.90
48007;DHT22;33771;48.180;11.400;2023-01-24T13:50:20;1.80;99.90
48007;DHT22;33771;48.180;11.400;2023-01-24T13:52:50;1.70;99.90
48007;DHT22;33771;48.180;11.400;2023-01-24T13:57:44;1.70;99.90
48007;DHT22;33771;48.180;11.400;2023-01-24T14:05:35;1.60;99.90
48007;DHT22;33771;48.180;11.400;2023-01-24T14:08:16;1.70;99.90
48007;DHT22;33771;48.180;11.400;2023-01-24T14:21:58;1.60;99.90
48007;DHT22;33771;48.180;11.400;2023-01-24T14:24:28;1.60;99.90
48007;DHT22;33771;48.180;11.400;2023-01-24T14:29:47;1.60;99.90
48007;DHT22;33771;48.180;11.400;2023-01-24T14:32:25;1.70;99.90
48007;DHT22;33771;48.180;11.400;2023-01-24T14:37:31;1.60;99.90
48007;DHT22;33771;48.180;11.400;2023-01-24T14:40:30;1.70;99.90
48007;DHT22;33771;48.180;11.400;2023-01-24T14:43:03;1.60;99.90
48007;DHT22;33771;48.180;11.400;2023-01-24T14:45:32;1.70;99.90
48007;DHT22;33771;48.180;11.400;2023-01-24T14:47:59;1.60;99.90
48007;DHT22;33771;48.180;11.400;2023-01-24T14:50:37;1.60;99.90
48007;DHT22;33771;48.180;11.400;2023-01-24T14:53:23;1.60;99.90
48007;DHT22;33771;48.180;11.400;2023-01-24T14:55:49;1.60;99.90
48007;DHT22;33771;48.180;11.400;2023-01-24T14:58:22;1.60;99.90
48007;DHT22;33771;48.180;11.400;2023-01-24T15:00:49;1.60;99.90
48007;DHT22;33771;48.180;11.400;2023-01-24T15:03:22;1.60;99.90
48007;DHT22;33771;48.180;11.400;2023-01-24T15:06:06;1.60;99.90
48007;DHT22;33771;48.180;11.400;2023-01-24T15:08:32;1.70;99.90
48007;DHT22;33771;48.180;11.400;2023-01-24T15:11:04;1.60;99.90
48007;DHT22;33771;48.180;11.400;2023-01-24T15:13:36;1.70;99.90
48007;DHT22;33771;48.180;11.400;2023-01-24T15:16:07;1.60;99.90
48007;DHT22;33771;48.180;11.400;2023-01-24T15:18:43;1.60;99.90
48007;DHT22;33771;48.180;11.400;2023-01-24T15:21:20;1.50;99.90
48007;DHT22;33771;48.180;11.400;2023-01-24T15:23:49;1.50;99.90
48007;DHT22;33771;48.180;11.400;2023-01-24T15:26:24;1.50;99.90
48007;DHT22;33771;48.180;11.400;2023-01-24T15:28:50;1.50;99.90
48007;DHT22;33771;48.180;11.400;2023-01-24T15:31:22;1.50;99.90
48007;DHT22;33771;48.180;11.400;2023-01-24T15:33:56;1.50;99.90
48007;DHT22;33771;48.180;11.400;2023-01-24T15:36:24;1.40;99.90
48007;DHT22;33771;48.180;11.400;2023-01-24T15:38:50;1.40;99.90
48007;DHT22;33771;48.180;11.400;2023-01-24T15:41:24;1.50;99.90
48007;DHT22;33771;48.180;11.400;2023-01-24T15:44:10;1.40;99.90
48007;DHT22;33771;48.180;11.400;2023-01-24T15:46:42;1.50;99.90
48007;DHT22;33771;48.180;11.400;2023-01-24T15:49:40;1.40;99.90
48007;DHT22;33771;48.180;11.400;2023-01-24T15:54:49;1.40;99.90
48007;DHT22;33771;48.180;11.400;2023-01-24T15:59:53;1.40;99.90
48007;DHT22;33771;48.180;11.400;2023-01-24T16:02:20;1.40;99.90
48007;DHT22;33771;48.180;11.400;2023-01-24T16:04:45;1.40;99.90
48007;DHT22;33771;48.180;11.400;2023-01-24T16:07:13;1.40;99.90
48007;DHT22;33771;48.180;11.400;2023-01-24T16:09:39;1.40;99.90
48007;DHT22;33771;48.180;11.400;2023-01-24T16:12:05;1.40;99.90
48007;DHT22;33771;48.180;11.400;2023-01-24T16:14:31;1.40;99.90
48007;DHT22;33771;48.180;11.400;2023-01-24T16:16:59;1.40;99.90
48007;DHT22;33771;48.180;11.400;2023-01-24T16:19:25;1.40;99.90
48007;DHT22;33771;48.180;11.400;2023-01-24T16:21:51;1.40;99.90
48007;DHT22;33771;48.180;11.400;2023-01-24T16:24:17;1.40;99.90
48007;DHT22;33771;48.180;11.400;2023-01-24T16:26:51;1.40;99.90
48007;DHT22;33771;48.180;11.400;2023-01-24T16:29:23;1.50;99.90
48007;DHT22;33771;48.180;11.400;2023-01-24T16:31:50;1.40;99.90
48007;DHT22;33771;48.180;11.400;2023-01-24T16:34:16;1.40;99.90
48007;DHT22;33771;48.180;11.400;2023-01-24T16:36:43;1.40;99.90
48007;DHT22;33771;48.180;11.400;2023-01-24T16:39:15;1.40;99.90
48007;DHT22;33771;48.180;11.400;2023-01-24T16:41:43;1.40;99.90
48007;DHT22;33771;48.180;11.400;2023-01-24T16:44:09;1.40;99.90
48007;DHT22;33771;48.180;11.400;2023-01-24T16:46:34;1.40;99.90
48007;DHT22;33771;48.180;11.400;2023-01-24T16:49:00;1.40;99.90
48007;DHT22;33771;48.180;11.400;2023-01-24T16:51:25;1.50;99.90
48007;DHT22;33771;48.180;11.400;2023-01-24T16:53:54;1.50;99.90
48007;DHT22;33771;48.180;11.400;2023-01-24T16:56:20;1.50;99.90
48007;DHT22;33771;48.180;11.400;2023-01-24T16:58:46;1.50;99.90
48007;DHT22;33771;48.180;11.400;2023-01-24T17:01:14;1.50;99.90
48007;DHT22;33771;48.180;11.400;2023-01-24T17:03:39;1.40;99.90
48007;DHT22;33771;48.180;11.400;2023-01-24T17:06:10;1.50;99.90
48007;DHT22;33771;48.180;11.400;2023-01-24T17:08:37;1.50;99.90
48007;DHT22;33771;48.180;11.400;2023-01-24T17:11:08;1.50;99.90
48007;DHT22;33771;48.180;11.400;2023-01-24T17:13:34;1.50;99.90
48007;DHT22;33771;48.180;11.400;2023-01-24T17:16:08;1.50;99.90
48007;DHT22;33771;48.180;11.400;2023-01-24T17:18:36;1.50;99.90
48007;DHT22;33771;48.180;11.400;2023-01-24T17:21:04;1.50;99.90
48007;DHT22;33771;48.180;11.400;2023-01-24T17:23:31;1.40;99.90
48007;DHT22;33771;48.180;11.400;2023-01-24T17:26:14;1.40;99.90
48007;DHT22;33771;48.180;11.400;2023-01-24T17:28:41;1.40;99.90
48007;DHT22;33771;48.180;11.400;2023-01-24T17:31:12;1.50;99.90
48007;DHT22;33771;48.180;11.400;2023-01-24T17:33:38;1.50;99.90
48007;DHT22;33771;48.180;11.400;2023-01-24T17:36:04;1.50;99.90
48007;DHT22;33771;48.180;11.400;2023-01-24T17:38:31;1.50;99.90
48007;DHT22;33771;48.180;11.400;2023-01-24T17:40:56;1.50;99.90
48007;DHT22;33771;48.180;11.400;2023-01-24T17:43:22;1.40;99.90
48007;DHT22;33771;48.180;11.400;2023-01-24T17:45:56;1.50;99.90
48007;DHT22;33771;48.180;11.400;2023-01-24T17:48:22;1.40;99.90
48007;DHT22;33771;48.180;11.400;2023-01-24T17:50:48;1.50;99.90
48007;DHT22;33771;48.180;11.400;2023-01-24T17:53:15;1.50;99.90